createdAt,value
2024-02-29T00:00:40.248Z,9.00
2024-02-29T00:01:40.221Z,8.70
2024-02-29T00:02:40.163Z,7.80
2024-02-29T00:03:40.135Z,8.20
2024-02-29T00:04:40.102Z,8.30
2024-02-29T00:05:40.104Z,8.20
2024-02-29T00:06:40.156Z,8.20
2024-02-29T00:07:40.067Z,7.50
2024-02-29T00:08:40.063Z,8.20
2024-02-29T00:09:40.106Z,7.80
2024-02-29T00:10:40.043Z,8.30
2024-02-29T00:11:40.030Z,8.00
2024-02-29T00:12:40.160Z,8.10
2024-02-29T00:13:40.006Z,8.50
2024-02-29T00:14:40.014Z,8.80
2024-02-29T00:15:40.076Z,8.50
2024-02-29T00:16:39.974Z,7.80
2024-02-29T00:17:40.030Z,7.90
2024-02-29T00:18:39.982Z,8.90
2024-02-29T00:19:39.995Z,8.60
2024-02-29T00:20:39.942Z,8.50
2024-02-29T00:21:41.945Z,8.30
2024-02-29T00:22:39.915Z,8.60
2024-02-29T00:23:39.931Z,8.60
2024-02-29T00:24:39.952Z,8.30
2024-02-29T00:25:39.887Z,8.30
2024-02-29T00:26:39.879Z,7.60
2024-02-29T00:27:39.914Z,8.10
2024-02-29T00:28:39.870Z,8.40
2024-02-29T00:29:39.865Z,8.30
2024-02-29T00:30:39.906Z,8.20
2024-02-29T00:31:39.829Z,7.80
2024-02-29T00:32:39.865Z,9.00
2024-02-29T00:33:39.866Z,8.30
2024-02-29T00:34:39.789Z,8.00
2024-02-29T00:35:42.618Z,7.90
2024-02-29T00:36:39.805Z,8.70
2024-02-29T00:37:39.777Z,8.60
2024-02-29T00:38:39.832Z,8.00
2024-02-29T00:39:39.780Z,8.70
2024-02-29T00:40:39.745Z,8.10
2024-02-29T00:41:39.727Z,8.00
2024-02-29T00:42:39.736Z,8.60
2024-02-29T00:43:39.709Z,8.50
2024-02-29T00:44:39.688Z,8.30
2024-02-29T00:45:39.687Z,8.20
2024-02-29T00:46:39.678Z,8.50
2024-02-29T00:47:39.684Z,8.60
2024-02-29T00:48:39.747Z,8.30
2024-02-29T00:49:39.643Z,8.10
2024-02-29T00:50:39.649Z,9.50
2024-02-29T00:51:39.726Z,8.80
2024-02-29T00:52:39.621Z,7.90
2024-02-29T00:53:39.611Z,7.90
2024-02-29T00:54:39.635Z,8.70
2024-02-29T00:55:39.584Z,8.30
2024-02-29T00:56:39.590Z,8.40
2024-02-29T00:57:39.602Z,7.80
2024-02-29T00:58:39.555Z,9.00
2024-02-29T00:59:39.537Z,8.50
2024-02-29T01:00:39.619Z,8.50
2024-02-29T01:01:39.626Z,8.80
2024-02-29T01:02:39.516Z,9.10
2024-02-29T01:03:39.556Z,8.60
2024-02-29T01:04:39.483Z,8.40
2024-02-29T01:05:39.509Z,7.70
2024-02-29T01:06:39.482Z,8.20
2024-02-29T01:07:39.468Z,9.00
2024-02-29T01:08:39.508Z,9.00
2024-02-29T01:09:39.494Z,9.00
2024-02-29T01:10:39.554Z,8.20
2024-02-29T01:11:39.532Z,8.70
2024-02-29T01:12:39.563Z,8.20
2024-02-29T01:13:39.460Z,8.20
2024-02-29T01:14:39.392Z,9.00
2024-02-29T01:15:39.445Z,8.30
2024-02-29T01:16:39.464Z,8.70
2024-02-29T01:17:39.464Z,8.20
2024-02-29T01:18:39.453Z,8.80
2024-02-29T01:19:39.464Z,8.40
2024-02-29T01:20:39.318Z,8.40
2024-02-29T01:21:39.344Z,8.00
2024-02-29T01:22:39.309Z,8.20
2024-02-29T01:23:39.296Z,9.10
2024-02-29T01:24:39.321Z,9.10
2024-02-29T01:25:39.285Z,9.00
2024-02-29T01:26:39.275Z,8.90
2024-02-29T01:27:39.299Z,8.80
2024-02-29T01:28:39.255Z,8.30
2024-02-29T01:29:39.270Z,9.00
2024-02-29T01:30:39.250Z,9.00
2024-02-29T01:31:39.227Z,7.90
2024-02-29T01:32:39.316Z,8.90
2024-02-29T01:33:39.251Z,9.10
2024-02-29T01:34:39.176Z,8.20
2024-02-29T01:35:39.374Z,8.90
2024-02-29T01:36:39.209Z,8.50
2024-02-29T01:37:39.173Z,8.50
2024-02-29T01:38:39.163Z,8.40
2024-02-29T01:39:39.165Z,9.00
2024-02-29T01:40:39.116Z,8.20
2024-02-29T01:41:39.120Z,8.30
2024-02-29T01:42:39.125Z,8.70
2024-02-29T01:43:39.115Z,8.60
2024-02-29T01:44:39.082Z,8.50
2024-02-29T01:45:39.112Z,8.50
2024-02-29T01:46:39.077Z,9.00
2024-02-29T01:47:39.115Z,9.20
2024-02-29T01:48:39.049Z,8.60
2024-02-29T01:49:39.049Z,8.30
2024-02-29T01:50:39.073Z,8.20
2024-02-29T01:51:39.035Z,8.20
2024-02-29T01:52:39.045Z,8.10
2024-02-29T01:53:39.137Z,8.20
2024-02-29T01:54:39.039Z,8.80
2024-02-29T01:55:38.991Z,8.60
2024-02-29T01:56:38.989Z,9.00
2024-02-29T01:57:39.029Z,7.90
2024-02-29T01:58:38.974Z,8.60
2024-02-29T01:59:38.933Z,8.80
2024-02-29T02:00:38.956Z,8.50
2024-02-29T02:01:39.136Z,9.00
2024-02-29T02:02:39.229Z,8.90
2024-02-29T02:03:38.997Z,8.70
2024-02-29T02:04:38.900Z,8.70
2024-02-29T02:05:38.874Z,8.50
2024-02-29T02:06:38.900Z,9.10
2024-02-29T02:07:38.863Z,8.40
2024-02-29T02:08:38.842Z,9.00
2024-02-29T02:09:38.856Z,8.60
2024-02-29T02:10:38.848Z,8.10
2024-02-29T02:11:38.839Z,8.70
2024-02-29T02:12:38.858Z,9.30
2024-02-29T02:13:38.794Z,8.80
2024-02-29T02:14:38.829Z,8.70
2024-02-29T02:15:38.824Z,8.80
2024-02-29T02:16:38.753Z,8.80
2024-02-29T02:17:38.811Z,9.80
2024-02-29T02:18:38.853Z,8.80
2024-02-29T02:19:38.736Z,8.80
2024-02-29T02:20:38.732Z,9.10
2024-02-29T02:21:38.720Z,8.10
2024-02-29T02:22:38.710Z,8.90
2024-02-29T02:23:38.714Z,8.80
2024-02-29T02:24:38.725Z,8.40
2024-02-29T02:25:38.749Z,9.90
2024-02-29T02:26:38.667Z,8.60
2024-02-29T02:27:38.683Z,8.90
2024-02-29T02:28:38.659Z,8.90
2024-02-29T02:29:38.679Z,9.00
2024-02-29T02:30:38.667Z,9.10
2024-02-29T02:31:38.616Z,8.90
2024-02-29T02:32:38.620Z,8.50
2024-02-29T02:33:38.618Z,9.00
2024-02-29T02:34:38.598Z,9.00
2024-02-29T02:35:38.598Z,8.10
2024-02-29T02:36:38.659Z,8.70
2024-02-29T02:37:38.564Z,9.30
2024-02-29T02:38:38.569Z,8.90
2024-02-29T02:39:38.591Z,9.20
2024-02-29T02:40:38.510Z,9.80
2024-02-29T02:41:38.507Z,9.20
2024-02-29T02:42:38.522Z,9.20
2024-02-29T02:43:38.499Z,10.00
2024-02-29T02:44:38.481Z,9.20
2024-02-29T02:45:38.504Z,9.20
2024-02-29T02:46:38.464Z,9.10
2024-02-29T02:47:38.552Z,8.90
2024-02-29T02:48:38.496Z,9.20
2024-02-29T02:49:38.428Z,9.10
2024-02-29T02:50:38.439Z,9.00
2024-02-29T02:51:38.434Z,9.50
2024-02-29T02:52:38.428Z,9.40
2024-02-29T02:53:38.385Z,9.20
2024-02-29T02:54:38.416Z,9.40
2024-02-29T02:55:38.385Z,9.10
2024-02-29T02:56:38.413Z,10.00
2024-02-29T02:57:38.419Z,9.40
2024-02-29T02:58:38.330Z,9.40
2024-02-29T02:59:38.334Z,9.00
2024-02-29T03:00:38.342Z,9.30
2024-02-29T03:01:38.376Z,10.40
2024-02-29T03:02:38.304Z,10.50
2024-02-29T03:03:38.361Z,9.50
2024-02-29T03:04:38.277Z,8.80
2024-02-29T03:05:38.272Z,9.70
2024-02-29T03:06:38.296Z,9.50
2024-02-29T03:07:38.257Z,9.90
2024-02-29T03:08:38.277Z,9.40
2024-02-29T03:09:38.241Z,9.60
2024-02-29T03:10:38.209Z,9.70
2024-02-29T03:11:38.236Z,9.80
2024-02-29T03:12:38.202Z,9.50
2024-02-29T03:13:38.224Z,9.50
2024-02-29T03:14:38.179Z,9.70
2024-02-29T03:15:38.198Z,9.00
2024-02-29T03:16:38.170Z,8.50
2024-02-29T03:17:38.166Z,9.20
2024-02-29T03:18:38.164Z,9.00
2024-02-29T03:19:38.123Z,8.90
2024-02-29T03:20:38.127Z,8.60
2024-02-29T03:21:38.154Z,8.40
2024-02-29T03:22:38.106Z,9.90
2024-02-29T03:23:38.080Z,9.30
2024-02-29T03:24:38.129Z,9.30
2024-02-29T03:25:38.109Z,9.10
2024-02-29T03:26:38.066Z,9.10
2024-02-29T03:27:38.076Z,10.00
2024-02-29T03:28:38.061Z,9.60
2024-02-29T03:29:38.039Z,9.60
2024-02-29T03:30:38.054Z,9.80
2024-02-29T03:31:37.999Z,9.30
2024-02-29T03:32:38.023Z,9.70
2024-02-29T03:33:38.051Z,9.10
2024-02-29T03:34:37.987Z,10.00
2024-02-29T03:35:37.985Z,9.30
2024-02-29T03:36:37.976Z,9.90
2024-02-29T03:37:37.977Z,9.10
2024-02-29T03:38:37.931Z,10.10
2024-02-29T03:39:37.954Z,9.30
2024-02-29T03:40:37.917Z,9.70
2024-02-29T03:41:37.905Z,10.20
2024-02-29T03:42:37.903Z,9.40
2024-02-29T03:43:37.903Z,9.60
2024-02-29T03:44:38.036Z,9.60
2024-02-29T03:45:37.898Z,16.80
2024-02-29T03:46:37.862Z,10.00
2024-02-29T03:47:37.938Z,10.10
2024-02-29T03:48:37.952Z,9.40
2024-02-29T03:49:37.848Z,9.90
2024-02-29T03:50:37.822Z,9.20
2024-02-29T03:51:37.831Z,9.00
2024-02-29T03:52:37.788Z,9.40
2024-02-29T03:53:37.782Z,9.00
2024-02-29T03:54:37.808Z,9.60
2024-02-29T03:55:37.816Z,9.80
2024-02-29T03:56:37.750Z,9.10
2024-02-29T03:57:37.820Z,9.70
2024-02-29T03:58:37.773Z,9.90
2024-02-29T03:59:37.757Z,9.40
2024-02-29T04:00:37.787Z,9.60
2024-02-29T04:01:37.818Z,9.80
2024-02-29T04:02:37.712Z,10.20
2024-02-29T04:03:37.714Z,9.80
2024-02-29T04:04:37.665Z,9.40
2024-02-29T04:05:37.671Z,9.80
2024-02-29T04:06:37.708Z,10.20
2024-02-29T04:07:37.643Z,9.50
2024-02-29T04:08:37.655Z,9.40
2024-02-29T04:09:37.676Z,9.80
2024-02-29T04:10:37.673Z,9.70
2024-02-29T04:11:37.594Z,9.90
2024-02-29T04:12:37.637Z,9.90
2024-02-29T04:13:37.579Z,9.70
2024-02-29T04:14:37.572Z,9.70
2024-02-29T04:15:37.584Z,9.70
2024-02-29T04:16:37.579Z,10.00
2024-02-29T04:17:37.602Z,9.70
2024-02-29T04:18:37.553Z,9.40
2024-02-29T04:19:37.548Z,11.50
2024-02-29T04:20:37.523Z,9.10
2024-02-29T04:21:37.530Z,9.80
2024-02-29T04:22:37.492Z,9.60
2024-02-29T04:23:37.506Z,9.20
2024-02-29T04:24:37.528Z,9.30
2024-02-29T04:25:37.491Z,10.00
2024-02-29T04:26:37.474Z,9.90
2024-02-29T04:27:37.451Z,10.40
2024-02-29T04:28:37.430Z,9.70
2024-02-29T04:29:37.419Z,11.00
2024-02-29T04:30:37.444Z,10.00
2024-02-29T04:31:37.403Z,9.80
2024-02-29T04:32:37.418Z,10.20
2024-02-29T04:33:37.449Z,9.70
2024-02-29T04:34:37.364Z,10.50
2024-02-29T04:35:37.401Z,10.70
2024-02-29T04:36:37.415Z,10.00
2024-02-29T04:37:37.338Z,9.70
2024-02-29T04:38:37.330Z,9.50
2024-02-29T04:39:37.385Z,10.00
2024-02-29T04:40:37.324Z,9.50
2024-02-29T04:41:37.290Z,9.30
2024-02-29T04:42:37.322Z,9.90
2024-02-29T04:43:37.277Z,10.50
2024-02-29T04:44:37.286Z,9.80
2024-02-29T04:45:37.261Z,10.20
2024-02-29T04:46:37.266Z,11.00
2024-02-29T04:47:37.284Z,11.00
2024-02-29T04:48:37.269Z,9.20
2024-02-29T04:49:37.218Z,10.80
2024-02-29T04:50:37.214Z,9.50
2024-02-29T04:51:37.216Z,10.90
2024-02-29T04:52:37.187Z,10.40
2024-02-29T04:53:37.514Z,10.20
2024-02-29T04:54:37.219Z,9.50
2024-02-29T04:55:37.146Z,10.40
2024-02-29T04:56:37.168Z,10.40
2024-02-29T04:57:37.179Z,10.90
2024-02-29T04:58:37.172Z,10.50
2024-02-29T04:59:37.300Z,10.80
2024-02-29T05:00:37.164Z,12.10
2024-02-29T05:01:37.222Z,11.00
2024-02-29T05:02:37.108Z,10.30
2024-02-29T05:03:37.159Z,10.40
2024-02-29T05:04:37.064Z,11.00
2024-02-29T05:05:37.083Z,9.90
2024-02-29T05:06:37.066Z,11.40
2024-02-29T05:07:37.057Z,10.70
2024-02-29T05:08:37.044Z,10.30
2024-02-29T05:09:37.025Z,10.50
2024-02-29T05:10:37.023Z,10.40
2024-02-29T05:11:38.756Z,10.40
2024-02-29T05:12:37.043Z,10.30
2024-02-29T05:13:36.970Z,10.50
2024-02-29T05:14:36.983Z,10.50
2024-02-29T05:15:37.030Z,10.30
2024-02-29T05:16:36.948Z,10.70
2024-02-29T05:17:36.996Z,10.80
2024-02-29T05:18:36.948Z,10.30
2024-02-29T05:19:36.990Z,10.80
2024-02-29T05:20:36.902Z,10.30
2024-02-29T05:21:36.996Z,11.10
2024-02-29T05:22:39.459Z,10.60
2024-02-29T05:23:36.836Z,11.10
2024-02-29T05:24:36.971Z,10.40
2024-02-29T05:25:36.891Z,10.00
2024-02-29T05:26:36.983Z,10.40
2024-02-29T05:27:36.803Z,10.10
2024-02-29T05:28:36.861Z,9.90
2024-02-29T05:29:36.817Z,10.70
2024-02-29T05:30:36.836Z,11.30
2024-02-29T05:31:36.777Z,11.60
2024-02-29T05:32:36.825Z,11.40
2024-02-29T05:33:36.764Z,10.40
2024-02-29T05:34:36.708Z,10.90
2024-02-29T05:35:36.714Z,11.40
2024-02-29T05:36:36.714Z,10.60
2024-02-29T05:37:36.720Z,11.00
2024-02-29T05:38:36.673Z,11.10
2024-02-29T05:39:36.665Z,11.00
2024-02-29T05:40:36.881Z,10.40
2024-02-29T05:41:36.667Z,11.50
2024-02-29T05:42:36.845Z,11.10
2024-02-29T05:43:36.718Z,10.90
2024-02-29T05:44:36.646Z,11.20
2024-02-29T05:45:36.643Z,11.10
2024-02-29T05:46:36.595Z,10.70
2024-02-29T05:47:36.598Z,10.90
2024-02-29T05:48:36.894Z,11.90
2024-02-29T05:49:36.581Z,10.60
2024-02-29T05:50:36.580Z,10.70
2024-02-29T05:51:36.565Z,10.30
2024-02-29T05:52:36.525Z,11.00
2024-02-29T05:53:36.514Z,11.20
2024-02-29T05:54:36.594Z,11.90
2024-02-29T05:55:36.496Z,10.30
2024-02-29T05:56:36.496Z,11.80
2024-02-29T05:57:36.535Z,11.10
2024-02-29T05:58:36.537Z,11.40
2024-02-29T05:59:36.470Z,10.50
2024-02-29T06:00:36.568Z,10.60
2024-02-29T06:01:36.502Z,11.70
2024-02-29T06:02:36.431Z,11.60
2024-02-29T06:03:36.464Z,11.40
2024-02-29T06:04:36.413Z,11.30
2024-02-29T06:05:36.410Z,11.40
2024-02-29T06:06:36.473Z,11.90
2024-02-29T06:07:36.381Z,11.30
2024-02-29T06:08:36.380Z,12.70
2024-02-29T06:09:36.382Z,11.50
2024-02-29T06:10:36.580Z,11.70
2024-02-29T06:11:36.344Z,11.60
2024-02-29T06:12:36.376Z,11.00
2024-02-29T06:13:36.328Z,11.10
2024-02-29T06:14:36.335Z,11.40
2024-02-29T06:15:36.309Z,10.80
2024-02-29T06:16:36.318Z,11.30
2024-02-29T06:17:36.343Z,11.80
2024-02-29T06:18:36.351Z,11.70
2024-02-29T06:19:36.263Z,10.70
2024-02-29T06:20:36.272Z,10.60
2024-02-29T06:21:36.285Z,11.70
2024-02-29T06:22:36.241Z,11.10
2024-02-29T06:23:36.237Z,11.40
2024-02-29T06:24:36.237Z,10.90
2024-02-29T06:25:36.193Z,10.70
2024-02-29T06:26:36.206Z,11.10
2024-02-29T06:27:36.240Z,10.60
2024-02-29T06:28:36.172Z,11.40
2024-02-29T06:29:36.242Z,11.20
2024-02-29T06:30:36.148Z,11.30
2024-02-29T06:31:36.143Z,11.20
2024-02-29T06:32:36.156Z,10.80
2024-02-29T06:33:36.129Z,10.90
2024-02-29T06:34:36.111Z,11.30
2024-02-29T06:35:36.094Z,11.10
2024-02-29T06:36:36.137Z,10.80
2024-02-29T06:37:36.127Z,10.90
2024-02-29T06:38:36.088Z,10.30
2024-02-29T06:39:36.083Z,10.50
2024-02-29T06:40:36.101Z,10.80
2024-02-29T06:41:36.042Z,10.80
2024-02-29T06:42:36.147Z,11.20
2024-02-29T06:43:36.021Z,11.60
2024-02-29T06:44:36.010Z,11.60
2024-02-29T06:45:36.098Z,11.40
2024-02-29T06:46:36.011Z,11.20
2024-02-29T06:47:36.020Z,10.80
2024-02-29T06:48:36.088Z,10.70
2024-02-29T06:49:36.028Z,11.60
2024-02-29T06:50:35.968Z,11.30
2024-02-29T06:51:36.063Z,12.10
2024-02-29T06:52:35.984Z,10.90
2024-02-29T06:53:35.930Z,12.70
2024-02-29T06:54:36.011Z,20.10
2024-02-29T06:55:35.904Z,10.90
2024-02-29T06:56:35.906Z,11.20
2024-02-29T06:57:35.923Z,11.60
2024-02-29T06:58:35.875Z,10.60
2024-02-29T06:59:36.099Z,10.70
2024-02-29T07:00:35.910Z,11.90
2024-02-29T07:01:36.000Z,11.40
2024-02-29T07:02:35.833Z,10.70
2024-02-29T07:03:35.907Z,10.50
2024-02-29T07:04:35.842Z,10.90
2024-02-29T07:05:36.964Z,11.10
2024-02-29T07:06:35.818Z,11.30
2024-02-29T07:07:35.769Z,11.60
2024-02-29T07:08:35.822Z,11.00
2024-02-29T07:09:35.880Z,11.20
2024-02-29T07:10:35.764Z,11.00
2024-02-29T07:11:35.788Z,11.60
2024-02-29T07:12:35.770Z,11.40
2024-02-29T07:13:35.759Z,10.70
2024-02-29T07:14:35.713Z,10.00
2024-02-29T07:15:35.800Z,10.80
2024-02-29T07:16:35.686Z,12.20
2024-02-29T07:17:35.684Z,11.60
2024-02-29T07:18:35.689Z,13.70
2024-02-29T07:19:35.656Z,11.70
2024-02-29T07:20:35.665Z,12.70
2024-02-29T07:21:35.741Z,11.20
2024-02-29T07:22:35.645Z,15.00
2024-02-29T07:23:35.635Z,11.80
2024-02-29T07:24:35.670Z,10.40
2024-02-29T07:25:35.610Z,11.30
2024-02-29T07:26:35.607Z,10.70
2024-02-29T07:27:35.623Z,11.00
2024-02-29T07:28:35.567Z,11.70
2024-02-29T07:29:35.590Z,10.80
2024-02-29T07:30:35.574Z,12.80
2024-02-29T07:31:35.531Z,12.20
2024-02-29T07:32:35.582Z,10.90
2024-02-29T07:33:35.518Z,10.30
2024-02-29T07:34:35.509Z,11.80
2024-02-29T07:35:35.495Z,11.30
2024-02-29T07:36:35.524Z,10.30
2024-02-29T07:37:35.510Z,10.50
2024-02-29T07:38:35.481Z,10.80
2024-02-29T07:39:35.478Z,10.60
2024-02-29T07:40:35.448Z,10.00
2024-02-29T07:41:35.456Z,10.80
2024-02-29T07:42:35.547Z,11.50
2024-02-29T07:43:35.413Z,10.80
2024-02-29T07:44:35.538Z,11.30
2024-02-29T07:45:35.389Z,11.30
2024-02-29T07:46:35.402Z,10.40
2024-02-29T07:47:35.449Z,10.60
2024-02-29T07:48:35.432Z,10.90
2024-02-29T07:49:35.360Z,10.70
2024-02-29T07:50:35.425Z,10.90
2024-02-29T07:51:35.375Z,10.70
2024-02-29T07:52:35.361Z,11.60
2024-02-29T07:53:35.308Z,10.40
2024-02-29T07:54:35.433Z,10.70
2024-02-29T07:55:35.307Z,10.80
2024-02-29T07:56:35.275Z,11.10
2024-02-29T07:57:35.296Z,10.60
2024-02-29T07:58:35.321Z,11.20
2024-02-29T07:59:35.265Z,10.80
2024-02-29T08:00:35.260Z,11.70
2024-02-29T08:01:35.294Z,10.70
2024-02-29T08:02:35.209Z,10.90
2024-02-29T08:03:35.257Z,10.90
2024-02-29T08:04:35.220Z,10.50
2024-02-29T08:05:35.244Z,10.50
2024-02-29T08:06:35.210Z,10.60
2024-02-29T08:07:35.174Z,10.30
2024-02-29T08:08:35.151Z,9.90
2024-02-29T08:09:35.173Z,10.70
2024-02-29T08:10:35.132Z,10.50
2024-02-29T08:11:35.167Z,11.00
2024-02-29T08:12:35.130Z,11.60
2024-02-29T08:13:35.138Z,11.20
2024-02-29T08:14:35.107Z,11.50
2024-02-29T08:15:35.171Z,10.60
2024-02-29T08:16:35.074Z,11.00
2024-02-29T08:17:35.085Z,11.20
2024-02-29T08:18:35.113Z,10.60
2024-02-29T08:19:35.054Z,10.20
2024-02-29T08:20:35.033Z,10.60
2024-02-29T08:21:36.760Z,10.30
2024-02-29T08:22:35.081Z,11.30
2024-02-29T08:23:35.047Z,10.60
2024-02-29T08:24:35.071Z,11.40
2024-02-29T08:25:34.992Z,10.90
2024-02-29T08:26:35.000Z,10.70
2024-02-29T08:27:35.010Z,10.60
2024-02-29T08:28:34.979Z,10.20
2024-02-29T08:29:34.998Z,11.20
2024-02-29T08:30:35.011Z,10.30
2024-02-29T08:31:34.950Z,9.40
2024-02-29T08:32:34.971Z,11.60
2024-02-29T08:33:35.069Z,10.90
2024-02-29T08:34:34.895Z,10.90
2024-02-29T08:35:34.897Z,11.20
2024-02-29T08:36:34.942Z,11.30
2024-02-29T08:37:34.893Z,10.60
2024-02-29T08:38:34.860Z,10.30
2024-02-29T08:39:34.978Z,11.10
2024-02-29T08:40:34.879Z,10.30
2024-02-29T08:41:34.858Z,11.00
2024-02-29T08:42:34.949Z,10.40
2024-02-29T08:43:34.858Z,10.40
2024-02-29T08:44:34.796Z,10.50
2024-02-29T08:45:34.935Z,10.70
2024-02-29T08:46:34.900Z,10.80
2024-02-29T08:47:34.870Z,11.20
2024-02-29T08:48:34.834Z,10.70
2024-02-29T08:49:34.840Z,10.70
2024-02-29T08:50:34.737Z,10.60
2024-02-29T08:51:34.832Z,10.50
2024-02-29T08:52:34.714Z,11.50
2024-02-29T08:53:34.738Z,10.60
2024-02-29T08:54:34.689Z,10.80
2024-02-29T08:55:34.708Z,10.50
2024-02-29T08:56:34.691Z,10.30
2024-02-29T08:57:34.671Z,10.40
2024-02-29T08:58:34.670Z,10.50
2024-02-29T08:59:34.658Z,10.30
2024-02-29T09:00:34.759Z,9.90
2024-02-29T09:01:34.729Z,9.90
2024-02-29T09:02:34.653Z,10.30
2024-02-29T09:03:34.613Z,10.10
2024-02-29T09:04:34.594Z,10.30
2024-02-29T09:05:34.706Z,9.70
2024-02-29T09:06:41.182Z,10.40
2024-02-29T09:07:34.591Z,9.50
2024-02-29T09:08:34.552Z,10.30
2024-02-29T09:09:34.615Z,9.80
2024-02-29T09:10:34.565Z,10.20
2024-02-29T09:11:34.558Z,10.80
2024-02-29T09:12:34.515Z,10.60
2024-02-29T09:13:35.942Z,9.70
2024-02-29T09:14:34.513Z,9.90
2024-02-29T09:15:34.492Z,10.50
2024-02-29T09:16:34.460Z,10.20
2024-02-29T09:17:34.506Z,9.70
2024-02-29T09:18:34.448Z,10.50
2024-02-29T09:19:34.480Z,10.20
2024-02-29T09:20:34.462Z,9.70
2024-02-29T09:21:34.431Z,10.40
2024-02-29T09:22:34.408Z,10.40
2024-02-29T09:23:34.421Z,9.00
2024-02-29T09:24:34.404Z,9.80
2024-02-29T09:25:34.400Z,10.00
2024-02-29T09:26:34.369Z,9.70
2024-02-29T09:27:34.422Z,9.70
2024-02-29T09:28:34.360Z,9.70
2024-02-29T09:29:34.859Z,9.70
2024-02-29T09:30:34.323Z,11.10
2024-02-29T09:31:34.332Z,9.90
2024-02-29T09:32:34.319Z,9.70
2024-02-29T09:33:34.385Z,9.40
2024-02-29T09:34:37.686Z,10.00
2024-02-29T09:35:34.276Z,10.30
2024-02-29T09:36:34.269Z,10.60
2024-02-29T09:37:34.283Z,9.80
2024-02-29T09:38:34.262Z,9.20
2024-02-29T09:39:34.277Z,10.00
2024-02-29T09:40:42.119Z,9.40
2024-02-29T09:41:50.906Z,10.30
2024-02-29T09:42:34.220Z,9.80
2024-02-29T09:43:34.202Z,9.40
2024-02-29T09:44:34.189Z,9.10
2024-02-29T09:45:34.176Z,9.60
2024-02-29T09:46:34.185Z,10.10
2024-02-29T09:47:34.197Z,9.80
2024-02-29T09:48:34.167Z,9.90
2024-02-29T09:49:34.139Z,9.70
2024-02-29T09:50:34.130Z,9.30
2024-02-29T09:51:34.118Z,9.90
2024-02-29T09:52:34.151Z,9.80
2024-02-29T09:53:34.097Z,9.30
2024-02-29T09:54:34.096Z,9.20
2024-02-29T09:55:34.072Z,10.00
2024-02-29T09:56:34.080Z,9.20
2024-02-29T09:57:34.074Z,9.20
2024-02-29T09:58:34.032Z,9.30
2024-02-29T09:59:34.042Z,9.50
2024-02-29T10:00:34.038Z,9.30
2024-02-29T10:01:34.142Z,9.00
2024-02-29T10:02:34.001Z,9.20
2024-02-29T10:03:33.988Z,9.60
2024-02-29T10:04:33.967Z,9.40
2024-02-29T10:05:33.985Z,9.30
2024-02-29T10:06:33.956Z,9.10
2024-02-29T10:07:33.984Z,9.00
2024-02-29T10:08:33.925Z,9.80
2024-02-29T10:09:33.962Z,9.10
2024-02-29T10:10:34.029Z,10.00
2024-02-29T10:11:34.032Z,10.10
2024-02-29T10:12:33.888Z,9.50
2024-02-29T10:13:33.890Z,8.90
2024-02-29T10:14:33.904Z,9.00
2024-02-29T10:15:33.862Z,8.60
2024-02-29T10:16:33.913Z,9.10
2024-02-29T10:17:33.914Z,9.10
2024-02-29T10:18:33.834Z,9.10
2024-02-29T10:19:33.832Z,9.20
2024-02-29T10:20:33.833Z,9.30
2024-02-29T10:21:33.811Z,8.90
2024-02-29T10:22:33.809Z,8.30
2024-02-29T10:23:33.790Z,9.00
2024-02-29T10:24:33.781Z,9.40
2024-02-29T10:25:33.776Z,8.50
2024-02-29T10:26:33.734Z,8.60
2024-02-29T10:27:33.748Z,9.20
2024-02-29T10:28:33.728Z,9.00
2024-02-29T10:29:33.715Z,8.70
2024-02-29T10:30:33.712Z,8.90
2024-02-29T10:31:33.693Z,9.50
2024-02-29T10:32:33.708Z,8.10
2024-02-29T10:33:33.674Z,8.40
2024-02-29T10:34:33.736Z,8.90
2024-02-29T10:35:33.671Z,9.60
2024-02-29T10:36:33.639Z,10.00
2024-02-29T10:37:33.638Z,9.30
2024-02-29T10:38:33.633Z,9.10
2024-02-29T10:39:33.605Z,8.80
2024-02-29T10:40:33.653Z,8.70
2024-02-29T10:41:33.597Z,8.50
2024-02-29T10:42:33.591Z,8.70
2024-02-29T10:43:33.605Z,9.50
2024-02-29T10:44:33.563Z,8.10
2024-02-29T10:45:33.591Z,8.80
2024-02-29T10:46:33.548Z,8.50
2024-02-29T10:47:34.178Z,9.10
2024-02-29T10:48:33.559Z,8.60
2024-02-29T10:49:33.512Z,8.90
2024-02-29T10:50:33.497Z,8.70
2024-02-29T10:51:33.484Z,8.90
2024-02-29T10:52:33.520Z,8.60
2024-02-29T10:53:33.455Z,8.90
2024-02-29T10:54:33.545Z,8.70
2024-02-29T10:55:33.474Z,8.20
2024-02-29T10:56:33.461Z,9.00
2024-02-29T10:57:33.436Z,9.10
2024-02-29T10:58:33.452Z,8.70
2024-02-29T10:59:33.408Z,9.20
2024-02-29T11:00:33.379Z,8.80
2024-02-29T11:01:33.469Z,8.80
2024-02-29T11:02:33.360Z,8.80
2024-02-29T11:03:33.368Z,8.70
2024-02-29T11:04:33.381Z,8.30
2024-02-29T11:05:33.331Z,9.10
2024-02-29T11:06:33.352Z,8.70
2024-02-29T11:07:33.349Z,9.20
2024-02-29T11:08:33.346Z,8.50
2024-02-29T11:09:33.344Z,8.30
2024-02-29T11:10:33.289Z,8.40
2024-02-29T11:11:33.333Z,9.10
2024-02-29T11:12:33.237Z,9.60
2024-02-29T11:13:33.241Z,8.70
2024-02-29T11:14:33.218Z,8.70
2024-02-29T11:15:33.231Z,9.80
2024-02-29T11:16:33.224Z,8.60
2024-02-29T11:17:33.259Z,8.40
2024-02-29T11:18:33.174Z,8.90
2024-02-29T11:19:42.377Z,8.60
2024-02-29T11:20:35.021Z,8.30
2024-02-29T11:21:33.162Z,8.30
2024-02-29T11:22:33.199Z,8.80
2024-02-29T11:23:33.126Z,8.60
2024-02-29T11:24:33.162Z,8.80
2024-02-29T11:25:33.164Z,8.60
2024-02-29T11:26:33.112Z,8.20
2024-02-29T11:27:33.082Z,9.20
2024-02-29T11:28:33.059Z,9.10
2024-02-29T11:29:33.072Z,8.50
2024-02-29T11:30:33.044Z,9.60
2024-02-29T11:31:33.050Z,9.00
2024-02-29T11:32:33.297Z,8.30
2024-02-29T11:33:33.032Z,9.00
2024-02-29T11:34:33.073Z,9.00
2024-02-29T11:35:33.001Z,8.30
2024-02-29T11:36:32.985Z,9.20
2024-02-29T11:37:34.679Z,8.20
2024-02-29T11:38:39.629Z,8.70
2024-02-29T11:39:32.986Z,8.30
2024-02-29T11:40:32.958Z,8.70
2024-02-29T11:41:32.931Z,8.80
2024-02-29T11:42:32.936Z,8.60
2024-02-29T11:43:32.967Z,9.20
2024-02-29T11:44:32.885Z,9.30
2024-02-29T11:45:32.903Z,8.60
2024-02-29T11:46:32.866Z,8.60
2024-02-29T11:47:32.893Z,8.40
2024-02-29T11:48:32.872Z,9.20
2024-02-29T11:49:32.911Z,9.00
2024-02-29T11:50:32.829Z,9.40
2024-02-29T11:51:32.842Z,8.70
2024-02-29T11:52:32.819Z,9.30
2024-02-29T11:53:32.817Z,9.20
2024-02-29T11:54:32.803Z,8.70
2024-02-29T11:55:32.827Z,8.30
2024-02-29T11:56:32.759Z,8.30
2024-02-29T11:57:32.778Z,8.70
2024-02-29T11:58:32.790Z,8.40
2024-02-29T11:59:32.745Z,8.30
2024-02-29T12:00:32.759Z,8.10
2024-02-29T12:01:32.848Z,8.20
2024-02-29T12:02:32.758Z,8.70
2024-02-29T12:03:32.696Z,8.60
2024-02-29T12:04:32.809Z,8.80
2024-02-29T12:05:32.689Z,8.70
2024-02-29T12:06:32.697Z,9.10
2024-02-29T12:07:32.717Z,8.60
2024-02-29T12:08:32.677Z,8.90
2024-02-29T12:09:32.632Z,8.60
2024-02-29T12:10:32.728Z,8.40
2024-02-29T12:11:32.807Z,8.10
2024-02-29T12:12:32.675Z,9.20
2024-02-29T12:13:32.602Z,8.70
2024-02-29T12:14:32.602Z,8.90
2024-02-29T12:15:32.590Z,8.60
2024-02-29T12:16:32.664Z,9.40
2024-02-29T12:17:32.579Z,8.80
2024-02-29T12:18:32.531Z,8.50
2024-02-29T12:19:32.544Z,9.30
2024-02-29T12:20:32.525Z,9.20
2024-02-29T12:21:32.540Z,8.80
2024-02-29T12:22:32.569Z,8.60
2024-02-29T12:23:32.513Z,8.60
2024-02-29T12:24:32.490Z,8.90
2024-02-29T12:25:32.558Z,8.10
2024-02-29T12:26:32.552Z,8.30
2024-02-29T12:27:32.438Z,9.20
2024-02-29T12:28:32.452Z,8.50
2024-02-29T12:29:32.416Z,9.10
2024-02-29T12:30:32.418Z,8.30
2024-02-29T12:31:32.405Z,8.50
2024-02-29T12:32:32.425Z,8.40
2024-02-29T12:33:32.480Z,9.00
2024-02-29T12:34:32.425Z,8.50
2024-02-29T12:35:32.479Z,8.80
2024-02-29T12:36:32.371Z,8.40
2024-02-29T12:37:32.323Z,9.30
2024-02-29T12:38:32.343Z,8.60
2024-02-29T12:39:32.313Z,8.20
2024-02-29T12:40:32.354Z,8.60
2024-02-29T12:41:32.290Z,9.20
2024-02-29T12:42:32.281Z,8.40
2024-02-29T12:43:32.295Z,8.60
2024-02-29T12:44:32.309Z,8.90
2024-02-29T12:45:32.236Z,8.60
2024-02-29T12:46:32.349Z,8.70
2024-02-29T12:47:32.266Z,9.20
2024-02-29T12:48:32.236Z,8.10
2024-02-29T12:49:32.250Z,7.70
2024-02-29T12:50:32.211Z,8.00
2024-02-29T12:51:32.210Z,8.40
2024-02-29T12:52:32.206Z,7.80
2024-02-29T12:53:32.172Z,8.30
2024-02-29T12:54:32.199Z,8.20
2024-02-29T12:55:32.230Z,8.10
2024-02-29T12:56:32.221Z,7.60
2024-02-29T12:57:32.219Z,7.90
2024-02-29T12:58:32.194Z,8.10
2024-02-29T12:59:32.160Z,8.00
2024-02-29T13:00:32.192Z,8.30
2024-02-29T13:01:32.202Z,7.80
2024-02-29T13:02:32.108Z,8.20
2024-02-29T13:03:32.079Z,8.10
2024-02-29T13:04:32.144Z,8.00
2024-02-29T13:05:32.064Z,7.80
2024-02-29T13:06:32.026Z,7.50
2024-02-29T13:07:32.102Z,7.40
2024-02-29T13:08:32.035Z,7.40